createdAt,value
2018-02-25T00:02:01.355Z,12.27
2018-02-25T00:04:28.849Z,12.80
2018-02-25T00:06:56.328Z,12.23
2018-02-25T00:09:23.818Z,12.70
2018-02-25T00:11:51.312Z,12.40
2018-02-25T00:14:18.795Z,12.70
2018-02-25T00:16:46.293Z,12.65
2018-02-25T00:19:13.782Z,13.70
2018-02-25T00:21:41.275Z,12.15
2018-02-25T00:24:08.776Z,13.27
2018-02-25T00:26:36.273Z,12.88
2018-02-25T00:29:03.763Z,13.57
2018-02-25T00:31:31.252Z,13.00
2018-02-25T00:33:58.760Z,12.35
2018-02-25T00:36:26.244Z,13.57
2018-02-25T00:38:53.815Z,12.90
2018-02-25T00:41:21.306Z,12.88
2018-02-25T00:43:48.799Z,13.30
2018-02-25T00:46:16.288Z,13.32
2018-02-25T00:48:43.811Z,13.35
2018-02-25T00:51:11.320Z,13.32
2018-02-25T00:53:38.823Z,13.55
2018-02-25T00:56:06.319Z,14.02
2018-02-25T00:58:33.812Z,13.38
2018-02-25T01:01:01.319Z,13.80
2018-02-25T01:03:28.814Z,12.70
2018-02-25T01:05:56.291Z,13.85
2018-02-25T01:08:23.788Z,13.15
2018-02-25T01:10:51.259Z,13.52
2018-02-25T01:13:18.791Z,13.98
2018-02-25T01:15:46.282Z,12.48
2018-02-25T01:18:13.779Z,14.98
2018-02-25T01:20:41.268Z,13.25
2018-02-25T01:23:08.754Z,14.20
2018-02-25T01:25:36.248Z,13.27
2018-02-25T01:28:03.747Z,14.15
2018-02-25T01:30:31.241Z,14.05
2018-02-25T01:32:58.745Z,13.60
2018-02-25T01:35:26.220Z,13.52
2018-02-25T01:37:53.706Z,13.32
2018-02-25T01:40:21.221Z,13.98
2018-02-25T01:42:48.691Z,14.60
2018-02-25T01:45:16.179Z,13.48
2018-02-25T01:47:43.672Z,13.77
2018-02-25T01:50:11.163Z,14.20
2018-02-25T01:52:38.654Z,13.95
2018-02-25T01:55:06.143Z,14.87
2018-02-25T01:57:33.635Z,14.00
2018-02-25T02:00:01.123Z,15.05
2018-02-25T02:02:28.607Z,14.38
2018-02-25T02:04:56.096Z,14.35
2018-02-25T02:07:23.602Z,14.00
2018-02-25T02:09:51.127Z,14.23
2018-02-25T02:12:18.615Z,15.45
2018-02-25T02:14:46.096Z,14.00
2018-02-25T02:17:13.592Z,15.75
2018-02-25T02:19:41.080Z,14.43
2018-02-25T02:22:08.584Z,14.95
2018-02-25T02:24:36.079Z,15.55
2018-02-25T02:27:03.603Z,14.40
2018-02-25T02:29:31.090Z,14.75
2018-02-25T02:31:58.600Z,15.57
2018-02-25T02:34:26.094Z,15.48
2018-02-25T02:36:53.587Z,14.45
2018-02-25T02:39:21.097Z,15.65
2018-02-25T02:41:48.587Z,15.15
2018-02-25T02:44:16.087Z,14.73
2018-02-25T02:46:43.585Z,15.13
2018-02-25T02:49:11.071Z,15.07
2018-02-25T02:51:38.581Z,15.40
2018-02-25T02:54:06.080Z,14.98
2018-02-25T02:56:33.600Z,16.08
2018-02-25T02:59:01.087Z,15.80
2018-02-25T03:01:28.573Z,13.30
2018-02-25T03:03:56.071Z,15.20
2018-02-25T03:06:23.561Z,15.77
2018-02-25T03:08:51.106Z,16.27
2018-02-25T03:11:18.599Z,15.30
2018-02-25T03:13:46.091Z,15.20
2018-02-25T03:16:13.578Z,16.20
2018-02-25T03:18:41.055Z,15.48
2018-02-25T03:21:08.566Z,15.10
2018-02-25T03:23:36.071Z,14.77
2018-02-25T03:26:03.559Z,14.85
2018-02-25T03:28:31.075Z,16.00
2018-02-25T03:30:58.552Z,15.77
2018-02-25T03:33:26.110Z,15.07
2018-02-25T03:35:53.612Z,16.83
2018-02-25T03:38:21.106Z,15.65
2018-02-25T03:40:48.607Z,16.50
2018-02-25T03:43:16.095Z,16.60
2018-02-25T03:45:43.579Z,15.75
2018-02-25T03:48:11.072Z,15.68
2018-02-25T03:50:38.555Z,15.95
2018-02-25T03:53:06.060Z,15.50
2018-02-25T03:55:33.546Z,15.85
2018-02-25T03:58:01.050Z,15.20
2018-02-25T04:00:28.535Z,16.10
2018-02-25T04:02:56.027Z,15.57
2018-02-25T04:05:23.518Z,16.40
2018-02-25T04:07:51.029Z,16.20
2018-02-25T04:10:18.520Z,15.35
2018-02-25T04:12:46.016Z,16.50
2018-02-25T04:15:13.519Z,16.55
2018-02-25T04:17:41.039Z,15.73
2018-02-25T04:20:08.540Z,16.85
2018-02-25T04:22:36.042Z,17.15
2018-02-25T04:25:03.536Z,16.58
2018-02-25T04:27:31.043Z,16.00
2018-02-25T04:29:58.543Z,16.62
2018-02-25T04:32:26.028Z,16.58
2018-02-25T04:34:53.525Z,15.38
2018-02-25T04:37:21.067Z,16.05
2018-02-25T04:39:48.556Z,16.33
2018-02-25T04:42:16.051Z,16.80
2018-02-25T04:44:43.548Z,16.00
2018-02-25T04:47:11.035Z,16.62
2018-02-25T04:49:38.544Z,16.92
2018-02-25T04:52:06.027Z,15.88
2018-02-25T04:54:33.556Z,17.40
2018-02-25T04:57:01.059Z,15.85
2018-02-25T04:59:28.551Z,15.88
2018-02-25T05:01:56.073Z,16.17
2018-02-25T05:04:23.569Z,15.25
2018-02-25T05:06:51.055Z,15.25
2018-02-25T05:09:18.547Z,16.15
2018-02-25T05:11:46.046Z,16.60
2018-02-25T05:14:13.531Z,15.45
2018-02-25T05:16:41.031Z,15.70
2018-02-25T05:19:08.533Z,16.10
2018-02-25T05:21:36.019Z,17.08
2018-02-25T05:24:03.519Z,15.65
2018-02-25T05:26:31.037Z,16.10
2018-02-25T05:28:58.540Z,16.20
2018-02-25T05:31:26.051Z,16.17
2018-02-25T05:33:53.548Z,16.55
2018-02-25T05:36:21.041Z,15.63
2018-02-25T05:38:48.548Z,15.60
2018-02-25T05:41:16.057Z,15.18
2018-02-25T05:43:43.547Z,15.38
2018-02-25T05:46:11.047Z,15.85
2018-02-25T05:48:38.532Z,15.48
2018-02-25T05:51:06.015Z,15.57
2018-02-25T05:53:33.518Z,16.58
2018-02-25T05:56:01.000Z,15.63
2018-02-25T05:58:28.492Z,15.63
2018-02-25T06:00:55.993Z,16.02
2018-02-25T06:03:23.475Z,15.63
2018-02-25T06:05:50.968Z,15.40
2018-02-25T06:08:18.464Z,16.23
2018-02-25T06:10:45.956Z,15.25
2018-02-25T06:13:13.439Z,14.90
2018-02-25T06:15:40.939Z,15.52
2018-02-25T06:18:08.443Z,15.25
2018-02-25T06:20:35.939Z,15.23
2018-02-25T06:23:03.500Z,14.93
2018-02-25T06:25:30.986Z,15.90
2018-02-25T06:27:58.498Z,15.07
2018-02-25T06:30:25.985Z,16.85
2018-02-25T06:32:53.476Z,15.15
2018-02-25T06:35:20.963Z,15.18
2018-02-25T06:37:48.524Z,14.82
2018-02-25T06:40:16.019Z,15.68
2018-02-25T06:42:43.519Z,15.93
2018-02-25T06:45:11.002Z,15.77
2018-02-25T06:47:38.488Z,15.85
2018-02-25T06:50:05.983Z,15.30
2018-02-25T06:52:33.469Z,15.90
2018-02-25T06:55:00.961Z,15.75
2018-02-25T06:57:28.463Z,15.50
2018-02-25T06:59:55.985Z,15.15
2018-02-25T07:02:23.467Z,15.40
2018-02-25T07:04:50.963Z,15.57
2018-02-25T07:07:18.456Z,15.43
2018-02-25T07:09:45.944Z,15.77
2018-02-25T07:12:13.468Z,16.25
2018-02-25T07:14:40.950Z,16.58
2018-02-25T07:17:08.448Z,15.02
2018-02-25T07:19:35.939Z,14.82
2018-02-25T07:22:03.471Z,14.80
2018-02-25T07:24:30.954Z,14.35
2018-02-25T07:26:58.767Z,15.25
2018-02-25T07:29:26.254Z,15.43
2018-02-25T07:31:53.743Z,14.65
2018-02-25T07:34:21.228Z,14.60
2018-02-25T07:36:48.749Z,15.45
2018-02-25T07:39:16.301Z,13.05
2018-02-25T07:41:43.823Z,14.05
2018-02-25T07:44:11.323Z,14.52
2018-02-25T07:46:38.819Z,14.13
2018-02-25T07:49:06.326Z,14.77
2018-02-25T07:51:33.860Z,13.02
2018-02-25T07:54:01.364Z,13.93
2018-02-25T07:56:28.853Z,13.82
2018-02-25T07:58:56.352Z,13.93
2018-02-25T08:01:23.840Z,13.23
2018-02-25T08:03:51.325Z,13.30
2018-02-25T08:06:18.823Z,14.13
2018-02-25T08:08:46.319Z,13.07
2018-02-25T08:11:13.802Z,13.98
2018-02-25T08:13:41.336Z,14.05
2018-02-25T08:16:08.834Z,14.45
2018-02-25T08:18:36.318Z,12.82
2018-02-25T08:21:03.804Z,13.25
2018-02-25T08:23:31.308Z,13.07
2018-02-25T08:25:58.783Z,12.68
2018-02-25T08:28:26.287Z,13.38
2018-02-25T08:30:53.768Z,12.85
2018-02-25T08:33:21.303Z,11.12
2018-02-25T08:35:48.796Z,12.52
2018-02-25T08:38:16.283Z,11.02
2018-02-25T08:40:43.788Z,10.20
2018-02-25T08:43:11.291Z,12.05
2018-02-25T08:45:38.798Z,11.45
2018-02-25T08:48:06.291Z,10.88
2018-02-25T08:50:33.800Z,10.60
2018-02-25T08:53:01.296Z,10.93
2018-02-25T08:55:28.779Z,8.93
2018-02-25T08:57:56.281Z,10.60
2018-02-25T09:00:23.760Z,10.68
2018-02-25T09:02:51.291Z,9.55
2018-02-25T09:05:18.772Z,9.05
2018-02-25T09:07:46.263Z,9.32
2018-02-25T09:10:13.750Z,9.18
2018-02-25T09:12:41.230Z,9.32
2018-02-25T09:15:08.756Z,8.20
2018-02-25T09:17:36.236Z,9.13
2018-02-25T09:20:03.727Z,8.60
2018-02-25T09:22:31.219Z,7.62
2018-02-25T09:24:58.722Z,7.37
2018-02-25T09:27:26.251Z,7.25
2018-02-25T09:29:53.735Z,7.60
2018-02-25T09:32:21.242Z,7.25
2018-02-25T09:34:48.736Z,7.47
2018-02-25T09:37:16.230Z,8.43
2018-02-25T09:39:43.718Z,8.05
2018-02-25T09:42:11.231Z,7.50
2018-02-25T09:44:38.708Z,8.43
2018-02-25T09:47:06.187Z,8.27
2018-02-25T09:49:33.694Z,8.73
2018-02-25T09:52:01.185Z,8.52
2018-02-25T09:54:29.248Z,7.60
2018-02-25T09:56:56.743Z,7.82
2018-02-25T09:59:24.240Z,8.15
2018-02-25T10:01:51.727Z,7.95
2018-02-25T10:04:19.255Z,8.50
2018-02-25T10:06:47.941Z,7.93
2018-02-25T10:09:15.632Z,8.70
2018-02-25T10:11:43.264Z,8.73
2018-02-25T10:14:10.779Z,8.32
2018-02-25T10:16:38.307Z,8.70
2018-02-25T10:19:05.803Z,8.05
2018-02-25T10:21:33.305Z,7.82
2018-02-25T10:24:00.776Z,8.20
2018-02-25T10:26:28.269Z,8.70
2018-02-25T10:28:55.957Z,8.80
2018-02-25T10:31:23.430Z,8.80
2018-02-25T10:33:50.918Z,8.60
2018-02-25T10:36:18.427Z,7.47
2018-02-25T10:38:45.967Z,8.25
2018-02-25T10:41:13.435Z,8.00
2018-02-25T10:43:40.930Z,7.87
2018-02-25T10:46:08.444Z,7.62
2018-02-25T10:48:35.896Z,7.53
2018-02-25T10:51:03.512Z,6.07
2018-02-25T10:53:30.991Z,8.05
2018-02-25T10:55:58.487Z,6.55
2018-02-25T10:58:25.983Z,7.78
2018-02-25T11:00:58.964Z,6.12
2018-02-25T11:03:26.468Z,6.32
2018-02-25T11:05:54.028Z,6.78
2018-02-25T11:08:21.574Z,6.95
2018-02-25T11:10:49.096Z,7.05
2018-02-25T11:13:16.600Z,7.03
2018-02-25T11:15:44.103Z,5.68
2018-02-25T11:18:11.608Z,7.45
2018-02-25T11:20:39.098Z,7.37
2018-02-25T11:23:06.584Z,7.90
2018-02-25T11:25:34.088Z,7.37
2018-02-25T11:28:01.591Z,8.27
2018-02-25T11:30:29.101Z,7.53
2018-02-25T11:32:56.587Z,8.10
2018-02-25T11:35:24.081Z,8.55
2018-02-25T11:37:51.755Z,7.47
2018-02-25T11:40:19.266Z,7.72
2018-02-25T11:42:46.752Z,7.90
2018-02-25T11:45:14.242Z,7.30
2018-02-25T11:47:41.801Z,7.70
2018-02-25T11:50:09.279Z,7.90
2018-02-25T11:52:36.821Z,7.87
2018-02-25T11:55:04.291Z,7.62
2018-02-25T11:57:31.807Z,7.78
2018-02-25T11:59:59.299Z,8.18
2018-02-25T12:02:26.791Z,7.78
2018-02-25T12:04:54.289Z,7.78
2018-02-25T12:07:21.771Z,7.53
2018-02-25T12:09:49.291Z,7.60
2018-02-25T12:12:16.789Z,7.28
2018-02-25T12:14:44.279Z,8.00
2018-02-25T12:17:11.773Z,7.55
2018-02-25T12:19:39.310Z,8.00
2018-02-25T12:22:06.819Z,7.05
2018-02-25T12:24:34.331Z,7.28
2018-02-25T12:27:01.821Z,7.32
2018-02-25T12:29:29.329Z,7.22
2018-02-25T12:31:56.823Z,7.70
2018-02-25T12:34:24.311Z,7.43
2018-02-25T12:36:51.799Z,7.45
2018-02-25T12:39:19.302Z,7.05
2018-02-25T12:41:46.818Z,7.75
2018-02-25T12:44:14.315Z,7.37
2018-02-25T12:46:41.815Z,7.82
2018-02-25T12:49:09.302Z,7.82
2018-02-25T12:51:36.804Z,7.60
2018-02-25T12:54:04.312Z,7.68
2018-02-25T12:56:31.828Z,8.52
2018-02-25T12:58:59.319Z,7.65
2018-02-25T13:01:26.847Z,8.00
2018-02-25T13:03:54.339Z,7.53
2018-02-25T13:06:22.167Z,7.40
2018-02-25T13:08:49.670Z,7.20
2018-02-25T13:11:17.160Z,7.28
2018-02-25T13:13:44.643Z,7.53
2018-02-25T13:16:12.142Z,7.75
2018-02-25T13:18:39.654Z,7.60
2018-02-25T13:21:07.134Z,8.15
2018-02-25T13:23:34.615Z,7.40
2018-02-25T13:26:02.103Z,6.85
2018-02-25T13:28:29.593Z,7.43
2018-02-25T13:30:57.107Z,7.22
2018-02-25T13:33:24.642Z,6.43
2018-02-25T13:35:52.159Z,6.53
2018-02-25T13:38:19.646Z,6.87
2018-02-25T13:40:47.199Z,6.60
2018-02-25T13:43:14.678Z,6.45
2018-02-25T13:45:42.171Z,6.12
2018-02-25T13:48:09.681Z,6.22
2018-02-25T13:50:37.179Z,6.78
2018-02-25T13:53:04.701Z,7.03
2018-02-25T13:55:32.241Z,6.57
2018-02-25T13:57:59.687Z,6.35
2018-02-25T14:00:27.306Z,6.55
2018-02-25T14:02:54.835Z,6.05
2018-02-25T14:05:22.331Z,6.37
2018-02-25T14:07:49.863Z,6.40
2018-02-25T14:10:17.364Z,6.12
2018-02-25T14:12:44.860Z,5.97
2018-02-25T14:15:12.365Z,6.22
2018-02-25T14:17:39.888Z,5.75
2018-02-25T14:20:07.432Z,5.80
2018-02-25T14:22:35.022Z,5.62
2018-02-25T14:25:02.539Z,6.55
2018-02-25T14:27:30.059Z,6.15
2018-02-25T14:29:57.556Z,7.30
2018-02-25T14:32:25.053Z,6.45
2018-02-25T14:34:52.551Z,5.62
2018-02-25T14:37:20.132Z,6.22
2018-02-25T14:39:47.633Z,6.03
2018-02-25T14:42:15.168Z,5.87
2018-02-25T14:44:43.279Z,5.93
2018-02-25T14:47:10.788Z,6.40
2018-02-25T14:49:38.305Z,6.20
2018-02-25T14:52:05.888Z,6.35
2018-02-25T14:54:33.436Z,6.03
2018-02-25T14:57:00.961Z,6.53
2018-02-25T14:59:28.480Z,7.47
2018-02-25T15:01:56.024Z,7.50
2018-02-25T15:04:24.693Z,6.35
2018-02-25T15:06:52.285Z,8.77
2018-02-25T15:09:19.826Z,7.40
2018-02-25T15:11:47.387Z,6.40
2018-02-25T15:14:14.900Z,6.97
2018-02-25T15:16:42.408Z,7.55
2018-02-25T15:19:09.932Z,7.00
2018-02-25T15:21:37.460Z,6.78
2018-02-25T15:24:04.985Z,7.65
2018-02-25T15:26:32.525Z,7.68
2018-02-25T15:29:00.050Z,8.60
2018-02-25T15:31:27.589Z,8.17
2018-02-25T15:33:55.120Z,7.50
2018-02-25T15:36:22.612Z,7.43
2018-02-25T15:38:50.130Z,7.72
2018-02-25T15:41:17.661Z,7.17
2018-02-25T15:43:45.184Z,7.33
2018-02-25T15:46:12.741Z,8.43
2018-02-25T15:48:40.256Z,7.33
2018-02-25T15:51:07.824Z,7.57
2018-02-25T15:53:35.360Z,8.10
2018-02-25T15:56:02.882Z,7.80
2018-02-25T15:58:30.448Z,8.20
2018-02-25T16:00:57.952Z,7.40
2018-02-25T16:03:25.639Z,7.30
2018-02-25T16:05:53.153Z,7.27
2018-02-25T16:08:20.658Z,7.30
2018-02-25T16:10:48.248Z,6.57
2018-02-25T16:13:15.745Z,7.05
2018-02-25T16:15:43.347Z,6.87
2018-02-25T16:18:10.862Z,7.30
2018-02-25T16:20:38.384Z,7.87
2018-02-25T16:23:05.879Z,7.57
2018-02-25T16:25:33.440Z,8.55
2018-02-25T16:28:00.964Z,7.87
2018-02-25T16:30:28.457Z,8.27
2018-02-25T16:32:55.977Z,8.23
2018-02-25T16:35:23.476Z,8.00
2018-02-25T16:37:51.001Z,7.93
2018-02-25T16:40:18.677Z,7.23
2018-02-25T16:42:46.205Z,8.40
2018-02-25T16:45:13.732Z,8.27
2018-02-25T16:47:41.234Z,8.63
2018-02-25T16:50:08.729Z,9.40
2018-02-25T16:52:36.244Z,9.13
2018-02-25T16:55:03.748Z,9.13
2018-02-25T16:57:31.500Z,9.57
2018-02-25T16:59:59.322Z,9.63
2018-02-25T17:02:26.960Z,9.87
2018-02-25T17:04:54.584Z,8.48
2018-02-25T17:07:22.100Z,9.45
2018-02-25T17:09:49.685Z,8.98
2018-02-25T17:12:17.374Z,8.65
2018-02-25T17:14:44.950Z,9.45
2018-02-25T17:17:12.462Z,8.77
2018-02-25T17:19:39.994Z,9.35
2018-02-25T17:22:07.542Z,10.10
2018-02-25T17:24:35.036Z,10.40
2018-02-25T17:27:02.550Z,10.07
2018-02-25T17:29:30.094Z,10.25
2018-02-25T17:31:57.750Z,10.27
2018-02-25T17:34:25.374Z,9.95
2018-02-25T17:36:52.871Z,9.70
2018-02-25T17:39:20.367Z,9.48
2018-02-25T17:41:47.950Z,10.57
2018-02-25T17:44:15.512Z,9.40
2018-02-25T17:46:43.003Z,9.43
2018-02-25T17:49:10.549Z,8.68
2018-02-25T17:51:38.070Z,10.10
2018-02-25T17:54:05.582Z,10.18
2018-02-25T17:56:33.241Z,10.57
2018-02-25T17:59:00.746Z,12.63
2018-02-25T18:01:28.265Z,12.93
2018-02-25T18:03:55.800Z,14.43
2018-02-25T18:06:23.307Z,11.80
2018-02-25T18:08:50.819Z,10.70
2018-02-25T18:11:18.414Z,10.35
2018-02-25T18:13:45.962Z,12.25
2018-02-25T18:16:13.444Z,17.65
2018-02-25T18:18:40.979Z,14.63
2018-02-25T18:21:08.475Z,10.90
2018-02-25T18:23:35.975Z,10.80
2018-02-25T18:26:03.479Z,11.70
2018-02-25T18:28:30.998Z,12.18
2018-02-25T18:30:58.491Z,12.25
2018-02-25T18:33:25.983Z,12.68
2018-02-25T18:35:53.480Z,12.68
2018-02-25T18:38:20.990Z,12.82
2018-02-25T18:40:48.483Z,19.20
2018-02-25T18:43:15.982Z,14.52
2018-02-25T18:45:43.475Z,15.07
2018-02-25T18:48:10.984Z,13.85
2018-02-25T18:50:38.491Z,13.50
2018-02-25T18:53:06.064Z,13.52
2018-02-25T18:55:33.704Z,13.05
2018-02-25T18:58:01.216Z,13.35
2018-02-25T19:00:28.728Z,13.25
2018-02-25T19:02:56.219Z,13.43
2018-02-25T19:05:23.733Z,13.95
2018-02-25T19:07:51.252Z,15.25
2018-02-25T19:10:19.104Z,14.98
2018-02-25T19:12:46.837Z,11.63
2018-02-25T19:15:14.450Z,13.32
2018-02-25T19:17:42.139Z,12.32
2018-02-25T19:20:09.747Z,10.73
2018-02-25T19:22:37.243Z,10.50
2018-02-25T19:25:05.142Z,15.68
2018-02-25T19:27:32.666Z,12.98
2018-02-25T19:30:00.128Z,14.10
2018-02-25T19:32:27.755Z,13.75
2018-02-25T19:34:55.360Z,12.60
2018-02-25T19:40:30.676Z,14.52
2018-02-25T19:42:58.167Z,14.00
2018-02-25T19:45:25.679Z,12.68
2018-02-25T19:47:53.171Z,12.25
2018-02-25T19:50:20.675Z,10.52
2018-02-25T19:52:48.159Z,11.43
2018-02-25T19:55:15.661Z,10.50
2018-02-25T19:57:43.155Z,10.35
2018-02-25T20:00:10.667Z,10.10
2018-02-25T20:02:38.166Z,8.20
2018-02-25T20:05:05.665Z,8.68
2018-02-25T20:07:33.181Z,8.65
2018-02-25T20:10:00.679Z,7.78
2018-02-25T20:12:28.163Z,8.65
2018-02-25T20:14:55.655Z,9.43
2018-02-25T20:17:23.148Z,8.90
2018-02-25T20:19:50.635Z,10.63
2018-02-25T20:22:18.152Z,9.40
2018-02-25T20:24:45.651Z,9.27
2018-02-25T20:27:13.167Z,8.77
2018-02-25T20:29:40.643Z,8.77
2018-02-25T20:32:08.126Z,7.72
2018-02-25T20:34:35.639Z,8.18
2018-02-25T20:37:03.144Z,8.90
2018-02-25T20:39:30.663Z,7.97
2018-02-25T20:41:58.163Z,8.40
2018-02-25T20:44:25.655Z,8.68
2018-02-25T20:46:53.152Z,8.40
2018-02-25T20:49:20.641Z,7.85
2018-02-25T20:51:48.147Z,9.13
2018-02-25T20:54:15.638Z,7.90
2018-02-25T20:56:43.139Z,7.70
2018-02-25T20:59:10.635Z,7.87
2018-02-25T21:01:38.126Z,7.25
2018-02-25T21:04:05.616Z,7.60
2018-02-25T21:06:33.099Z,7.68
2018-02-25T21:09:00.603Z,8.23
2018-02-25T21:11:28.109Z,7.78
2018-02-25T21:13:55.581Z,8.50
2018-02-25T21:16:23.075Z,6.93
2018-02-25T21:18:50.551Z,7.60
2018-02-25T21:21:18.024Z,7.53
2018-02-25T21:23:45.523Z,7.47
2018-02-25T21:26:13.005Z,7.18
2018-02-25T21:28:40.492Z,6.68
2018-02-25T21:31:07.987Z,6.32
2018-02-25T21:33:35.480Z,6.70
2018-02-25T21:36:02.968Z,6.80
2018-02-25T21:38:30.463Z,6.60
2018-02-25T21:40:57.951Z,6.47
2018-02-25T21:43:25.443Z,7.05
2018-02-25T21:45:52.940Z,7.12
2018-02-25T21:48:20.417Z,7.03
2018-02-25T21:50:47.911Z,7.75
2018-02-25T21:53:15.406Z,7.00
2018-02-25T21:55:48.343Z,7.07
2018-02-25T21:58:21.427Z,6.72
2018-02-25T22:00:54.503Z,6.65
2018-02-25T22:03:27.659Z,6.68
2018-02-25T22:05:55.144Z,7.15
2018-02-25T22:08:22.625Z,6.70
2018-02-25T22:10:50.067Z,6.25
2018-02-25T22:13:17.578Z,6.07
2018-02-25T22:15:45.055Z,5.72
2018-02-25T22:18:12.557Z,6.45
2018-02-25T22:20:40.064Z,6.30
2018-02-25T22:23:07.555Z,6.03
2018-02-25T22:25:35.010Z,6.28
2018-02-25T22:28:02.543Z,5.75
2018-02-25T22:30:30.047Z,5.87
2018-02-25T22:32:57.563Z,6.20
2018-02-25T22:35:25.047Z,5.68
2018-02-25T22:37:52.563Z,5.43
2018-02-25T22:40:20.029Z,5.37
2018-02-25T22:42:47.537Z,4.87
2018-02-25T22:45:15.015Z,5.55
2018-02-25T22:47:42.534Z,4.50
2018-02-25T22:50:10.030Z,4.87
2018-02-25T22:52:37.524Z,4.65
2018-02-25T22:55:05.014Z,4.50
2018-02-25T22:57:32.517Z,4.07
2018-02-25T22:59:59.997Z,4.03
2018-02-25T23:02:27.540Z,4.25
2018-02-25T23:04:55.035Z,4.30
2018-02-25T23:07:23.493Z,4.82
2018-02-25T23:09:50.987Z,4.68
2018-02-25T23:12:18.475Z,4.12
2018-02-25T23:14:45.986Z,4.07
2018-02-25T23:17:13.472Z,4.55
2018-02-25T23:19:40.944Z,3.92
2018-02-25T23:22:08.427Z,4.28
2018-02-25T23:24:35.907Z,4.20
2018-02-25T23:27:03.388Z,3.65
2018-02-25T23:29:30.859Z,4.12
2018-02-25T23:31:58.358Z,3.80
2018-02-25T23:34:25.868Z,3.95
2018-02-25T23:36:53.360Z,3.60
2018-02-25T23:39:20.853Z,3.58
2018-02-25T23:41:48.339Z,3.53
2018-02-25T23:44:15.852Z,3.50
2018-02-25T23:46:43.323Z,3.60
2018-02-25T23:49:10.801Z,3.67
2018-02-25T23:51:38.278Z,3.30
2018-02-25T23:54:05.780Z,3.25
2018-02-25T23:56:33.279Z,3.53
2018-02-25T23:59:00.763Z,3.40
